createdAt,value
2022-09-09T00:02:35.000Z,6.25
2022-09-09T00:07:35.000Z,6.24
2022-09-09T00:12:34.000Z,6.19
2022-09-09T00:17:35.000Z,6.15
2022-09-09T00:22:35.000Z,6.16
2022-09-09T00:27:34.000Z,6.15
2022-09-09T00:32:35.000Z,6.17
2022-09-09T00:37:35.000Z,6.21
2022-09-09T00:42:34.000Z,6.25
2022-09-09T00:47:35.000Z,6.33
2022-09-09T00:52:34.000Z,6.4
2022-09-09T00:57:35.000Z,6.43
2022-09-09T01:02:34.000Z,6.48
2022-09-09T01:07:35.000Z,6.48
2022-09-09T01:12:34.000Z,6.54
2022-09-09T01:17:35.000Z,6.59
2022-09-09T01:22:34.000Z,6.61
2022-09-09T01:32:35.000Z,6.66
2022-09-09T01:37:34.000Z,6.57
2022-09-09T01:42:35.000Z,6.55
2022-09-09T01:47:35.000Z,6.57
2022-09-09T01:52:34.000Z,6.43
2022-09-09T01:57:34.000Z,6.48
2022-09-09T02:02:35.000Z,6.45
2022-09-09T02:07:34.000Z,6.49
2022-09-09T02:12:34.000Z,6.61
2022-09-09T02:17:35.000Z,6.61
2022-09-09T02:22:35.000Z,6.59
2022-09-09T02:27:35.000Z,6.61
2022-09-09T02:32:35.000Z,6.52
2022-09-09T02:37:35.000Z,6.28
2022-09-09T02:42:35.000Z,6.16
2022-09-09T02:47:34.000Z,6.05
2022-09-09T02:52:35.000Z,5.87
2022-09-09T02:57:35.000Z,5.82
2022-09-09T03:02:35.000Z,5.85
2022-09-09T03:07:34.000Z,6.01
2022-09-09T03:12:35.000Z,5.97
2022-09-09T03:17:35.000Z,5.95
2022-09-09T03:22:35.000Z,6.1
2022-09-09T03:27:34.000Z,6.04
2022-09-09T03:32:35.000Z,6.04
2022-09-09T03:37:34.000Z,6.01
2022-09-09T03:42:34.000Z,5.91
2022-09-09T03:47:35.000Z,5.98
2022-09-09T03:52:35.000Z,5.93
2022-09-09T03:57:34.000Z,5.99
2022-09-09T04:02:35.000Z,6.03
2022-09-09T04:07:34.000Z,6.1
2022-09-09T04:12:34.000Z,6.18
2022-09-09T04:17:34.000Z,6.3
2022-09-09T04:22:34.000Z,6.44
2022-09-09T04:27:34.000Z,6.59
2022-09-09T04:32:34.000Z,6.75
2022-09-09T04:37:34.000Z,6.91
2022-09-09T04:42:34.000Z,7.08
2022-09-09T04:47:35.000Z,7.08
2022-09-09T04:52:35.000Z,7.54
2022-09-09T04:57:35.000Z,8.29
2022-09-09T05:02:41.000Z,8.33
2022-09-09T05:07:35.000Z,8.36
2022-09-09T05:17:34.000Z,8.46
2022-09-09T05:22:35.000Z,8.59
2022-09-09T05:27:34.000Z,8.68
2022-09-09T05:32:35.000Z,9.27
2022-09-09T05:37:35.000Z,12.77
2022-09-09T05:42:34.000Z,16.82
2022-09-09T05:47:34.000Z,19.1
2022-09-09T05:52:35.000Z,19.1
2022-09-09T05:57:34.000Z,21.27
2022-09-09T06:02:35.000Z,21.96
2022-09-09T06:07:35.000Z,21.87
2022-09-09T06:12:34.000Z,22.72
2022-09-09T06:17:35.000Z,23.08
2022-09-09T06:22:35.000Z,23.77
2022-09-09T06:27:35.000Z,24.27
2022-09-09T06:32:35.000Z,24.8
2022-09-09T06:37:35.000Z,25.03
2022-09-09T06:42:34.000Z,27.26
2022-09-09T06:47:35.000Z,25.77
2022-09-09T06:52:34.000Z,25.86
2022-09-09T06:57:47.000Z,26.27
2022-09-09T07:02:35.000Z,25.96
2022-09-09T07:07:34.000Z,25.96
2022-09-09T07:17:35.000Z,23.27
2022-09-09T07:22:34.000Z,23.94
2022-09-09T07:27:35.000Z,25.27
2022-09-09T07:32:35.000Z,25.14
2022-09-09T07:37:35.000Z,25.71
2022-09-09T07:42:35.000Z,24.98
2022-09-09T07:47:35.000Z,25.73
2022-09-09T07:52:35.000Z,23.13
2022-09-09T07:57:34.000Z,19.3
2022-09-09T08:02:34.000Z,17.93
2022-09-09T08:07:35.000Z,17.33
2022-09-09T08:12:34.000Z,20.69
2022-09-09T08:17:35.000Z,19.47
2022-09-09T08:22:34.000Z,19.47
2022-09-09T08:27:35.000Z,16.6
2022-09-09T08:32:35.000Z,19.92
2022-09-09T08:37:34.000Z,19.65
2022-09-09T08:42:35.000Z,18.48
2022-09-09T08:47:40.000Z,17.06
2022-09-09T08:52:34.000Z,18.49
2022-09-09T08:57:34.000Z,24.03
2022-09-09T09:02:35.000Z,23.35
2022-09-09T09:07:42.000Z,19.96
2022-09-09T09:12:35.000Z,17.97
2022-09-09T09:17:35.000Z,16.53
2022-09-09T09:22:34.000Z,15.75
2022-09-09T09:27:35.000Z,15.16
2022-09-09T09:32:34.000Z,15.05
2022-09-09T09:37:35.000Z,15.05
2022-09-09T09:42:34.000Z,15.89
2022-09-09T09:47:35.000Z,16.4
2022-09-09T09:52:35.000Z,16.22
2022-09-09T09:57:35.000Z,16.42
2022-09-09T10:02:35.000Z,15.81
2022-09-09T10:07:35.000Z,15.04
2022-09-09T10:12:35.000Z,14.01
2022-09-09T10:17:35.000Z,14.16
2022-09-09T10:22:35.000Z,14.7
2022-09-09T10:27:35.000Z,15.12
2022-09-09T10:37:35.000Z,15.39
2022-09-09T10:42:34.000Z,14.75
2022-09-09T10:47:38.000Z,14.21
2022-09-09T10:52:35.000Z,13.94
2022-09-09T10:57:35.000Z,13.99
2022-09-09T11:02:34.000Z,14.25
2022-09-09T11:07:34.000Z,14.22
2022-09-09T11:12:35.000Z,14.08
2022-09-09T11:17:35.000Z,14.18
2022-09-09T11:22:35.000Z,14.7
2022-09-09T11:27:35.000Z,14.7
2022-09-09T11:32:34.000Z,14.64
2022-09-09T11:37:34.000Z,14.77
2022-09-09T11:42:34.000Z,15.18
2022-09-09T11:47:34.000Z,14.92
2022-09-09T11:52:34.000Z,14.52
2022-09-09T11:57:35.000Z,14.36
2022-09-09T12:02:35.000Z,14.17
2022-09-09T12:07:35.000Z,14.2
2022-09-09T12:12:34.000Z,14.51
2022-09-09T12:22:35.000Z,14.53
2022-09-09T12:27:35.000Z,13.71
2022-09-09T12:32:35.000Z,13.71
2022-09-09T12:37:34.000Z,13.31
2022-09-09T12:42:34.000Z,13.05
2022-09-09T12:47:40.000Z,13.26
2022-09-09T12:52:35.000Z,13.51
2022-09-09T12:57:35.000Z,13.3
2022-09-09T13:02:35.000Z,13
2022-09-09T13:07:35.000Z,12.75
2022-09-09T13:12:35.000Z,12.68
2022-09-09T13:17:34.000Z,12.9
2022-09-09T13:22:34.000Z,12.91
2022-09-09T13:27:34.000Z,12.8
2022-09-09T13:32:35.000Z,12.51
2022-09-09T13:37:34.000Z,12.22
2022-09-09T13:42:35.000Z,12.01
2022-09-09T13:47:35.000Z,12.01
2022-09-09T13:52:35.000Z,11.92
2022-09-09T13:57:35.000Z,11.87
2022-09-09T14:02:35.000Z,11.8
2022-09-09T14:07:34.000Z,11.76
2022-09-09T14:12:34.000Z,11.75
2022-09-09T14:17:34.000Z,11.66
2022-09-09T14:22:35.000Z,11.57
2022-09-09T14:27:35.000Z,11.55
2022-09-09T14:32:35.000Z,11.58
2022-09-09T14:37:34.000Z,11.77
2022-09-09T14:42:35.000Z,12.02
2022-09-09T14:47:35.000Z,12.34
2022-09-09T14:52:35.000Z,12.51
2022-09-09T14:57:34.000Z,12.4
2022-09-09T15:02:35.000Z,12.4
2022-09-09T15:07:35.000Z,12.18
2022-09-09T15:12:35.000Z,11.96
2022-09-09T15:17:35.000Z,11.79
2022-09-09T15:22:34.000Z,11.63
2022-09-09T15:27:35.000Z,11.38
2022-09-09T15:32:34.000Z,11.22
2022-09-09T15:37:34.000Z,11.08
2022-09-09T15:42:34.000Z,10.95
2022-09-09T15:47:35.000Z,10.77
2022-09-09T15:52:34.000Z,10.6
2022-09-09T15:57:34.000Z,10.46
2022-09-09T16:02:35.000Z,10.48
2022-09-09T16:12:35.000Z,10.41
2022-09-09T16:17:35.000Z,10.28
2022-09-09T16:22:35.000Z,10.11
2022-09-09T16:27:34.000Z,10.08
2022-09-09T16:32:34.000Z,10.02
2022-09-09T16:37:35.000Z,9.92
2022-09-09T16:42:35.000Z,9.79
2022-09-09T16:52:35.000Z,9.56
2022-09-09T16:57:35.000Z,9.56
2022-09-09T17:02:35.000Z,9.28
2022-09-09T17:07:35.000Z,9.25
2022-09-09T17:12:35.000Z,9.15
2022-09-09T17:17:42.000Z,9.1
2022-09-09T17:22:35.000Z,9.01
2022-09-09T17:27:34.000Z,8.88
2022-09-09T17:32:34.000Z,8.79
2022-09-09T17:37:34.000Z,8.69
2022-09-09T17:42:35.000Z,8.52
2022-09-09T17:47:34.000Z,8.42
2022-09-09T17:52:34.000Z,8.35
2022-09-09T17:57:34.000Z,8.28
2022-09-09T18:02:34.000Z,8.13
2022-09-09T18:07:35.000Z,8.05
2022-09-09T18:12:34.000Z,7.91
2022-09-09T18:22:34.000Z,7.75
2022-09-09T18:27:35.000Z,7.6
2022-09-09T18:32:34.000Z,7.54
2022-09-09T18:37:34.000Z,7.48
2022-09-09T18:42:35.000Z,7.45
2022-09-09T18:47:35.000Z,7.36
2022-09-09T18:52:35.000Z,7.31
2022-09-09T18:57:35.000Z,7.25
2022-09-09T19:02:35.000Z,7.19
2022-09-09T19:07:35.000Z,7.2
2022-09-09T19:17:34.000Z,7.05
2022-09-09T19:22:34.000Z,6.94
2022-09-09T19:27:34.000Z,6.92
2022-09-09T19:33:03.000Z,6.83
2022-09-09T19:37:35.000Z,6.75
2022-09-09T19:42:34.000Z,6.58
2022-09-09T19:47:34.000Z,6.38
2022-09-09T19:52:35.000Z,6.38
2022-09-09T19:57:35.000Z,6.27
2022-09-09T20:02:34.000Z,6.2
2022-09-09T20:07:35.000Z,6.12
2022-09-09T20:12:35.000Z,6.16
2022-09-09T20:17:34.000Z,6.07
2022-09-09T20:22:35.000Z,5.99
2022-09-09T20:27:34.000Z,5.95
2022-09-09T20:32:34.000Z,5.89
2022-09-09T20:37:35.000Z,5.82
2022-09-09T20:42:35.000Z,5.74
2022-09-09T20:47:34.000Z,5.65
2022-09-09T20:52:34.000Z,5.69
2022-09-09T20:57:34.000Z,5.61
2022-09-09T21:02:35.000Z,5.65
2022-09-09T21:07:35.000Z,5.65
2022-09-09T21:12:35.000Z,5.63
2022-09-09T21:17:34.000Z,5.56
2022-09-09T21:22:34.000Z,5.5
2022-09-09T21:27:35.000Z,5.45
2022-09-09T21:32:35.000Z,5.37
2022-09-09T21:37:35.000Z,5.33
2022-09-09T21:42:35.000Z,5.32
2022-09-09T21:47:34.000Z,5.2
2022-09-09T21:52:34.000Z,5.16
2022-09-09T21:57:35.000Z,5.09
2022-09-09T22:02:35.000Z,4.94
2022-09-09T22:07:35.000Z,4.83
2022-09-09T22:12:35.000Z,4.82
2022-09-09T22:17:35.000Z,4.89
2022-09-09T22:22:35.000Z,4.89
2022-09-09T22:27:34.000Z,4.84
2022-09-09T22:32:34.000Z,4.81
2022-09-09T22:37:34.000Z,4.85
2022-09-09T22:42:35.000Z,4.85
2022-09-09T22:47:34.000Z,4.74
2022-09-09T22:52:34.000Z,4.75
2022-09-09T22:57:34.000Z,4.72
2022-09-09T23:02:35.000Z,4.7
2022-09-09T23:07:34.000Z,4.66
2022-09-09T23:12:34.000Z,4.59
2022-09-09T23:17:34.000Z,4.46
2022-09-09T23:22:34.000Z,4.46
2022-09-09T23:27:35.000Z,4.42
2022-09-09T23:32:34.000Z,4.41
2022-09-09T23:37:35.000Z,4.41
2022-09-09T23:42:35.000Z,4.41
2022-09-09T23:47:35.000Z,4.37
2022-09-09T23:52:35.000Z,4.29
2022-09-09T23:57:34.000Z,4.26
